Main page
Satellite images 10-day forecastsClimateMarine weather Cyclones Lightning AirportsFAQ Newsletter About
Weather : Europe Africa North America South America Asia Australia-Oceania Others
Languages Contact

Charlotte, North Carolina, United States

Charlotte Douglas International Airport

latitude: 35-12-48N, longitude: 080-56-55W, elevation: 748 ft


METAR: KCLT 230352Z 00000KT 10SM FEW250 16/07 A3029 RMK AO2 SLP253 T01560067 $
TAF: KCLT 222320Z 2300/2324 00000KT P6SM SKC FM231400 06006KT P6SM SKC FM231900 13005KT P6SM FEW250

Time: 00:12 (04:12 UTC)

Current weather observation

The report was made 20 minutes ago, at 03:52 UTC
Calm wind
Temperature 61°F
Humidity 55%
Pressure 30.29 in. Hg
Visibility: 10 miles
Few clouds at a height of 25000 ft

Change units

Forecast

The report was made 4 hours and 52 minutes ago, at 23:20 UTC
Forecast valid from 23 at 00 UTC to 23 at 24 UTC
Wind 0 mph from the North
Visibility: 6 miles
Clear sky
From 23 at 1400 UTC
Wind 7 mph from the East/Northeast
Visibility: 6 miles
Clear sky
From 23 at 1900 UTC
Wind 6 mph from the Southeast
Visibility: 6 miles
Few clouds at a height of 25000 ft
The information on this site is subject to a disclaimer
Weather : Europe Africa North America South America Asia Australia-Oceania Others
Satellite images 10-day forecastsClimateMarine weather Cyclones Lightning AirportsFAQ Languages Contact Newsletter About